createdAt,value
2017-10-24T00:01:23.824Z,9.50
2017-10-24T00:03:49.772Z,10.23
2017-10-24T00:06:15.744Z,16.63
2017-10-24T00:08:41.680Z,10.00
2017-10-24T00:11:07.913Z,10.70
2017-10-24T00:13:33.896Z,9.27
2017-10-24T00:15:59.855Z,14.40
2017-10-24T00:18:25.836Z,9.00
2017-10-24T00:20:52.608Z,11.90
2017-10-24T00:23:19.298Z,12.47
2017-10-24T00:25:45.242Z,9.23
2017-10-24T00:28:11.220Z,11.57
2017-10-24T00:30:37.929Z,9.47
2017-10-24T00:33:03.907Z,10.13
2017-10-24T00:35:29.923Z,10.03
2017-10-24T00:37:55.904Z,10.53
2017-10-24T00:40:21.873Z,11.87
2017-10-24T00:42:47.837Z,11.13
2017-10-24T00:45:13.813Z,9.83
2017-10-24T00:47:39.752Z,9.47
2017-10-24T00:50:05.729Z,11.40
2017-10-24T00:52:31.703Z,11.07
2017-10-24T00:54:58.428Z,14.07
2017-10-24T00:57:24.426Z,14.13
2017-10-24T00:59:50.414Z,11.23
2017-10-24T01:02:17.092Z,15.00
2017-10-24T01:04:43.033Z,14.27
2017-10-24T01:07:09.008Z,13.10
2017-10-24T01:09:34.993Z,12.60
2017-10-24T01:12:01.721Z,16.87
2017-10-24T01:14:27.688Z,13.60
2017-10-24T01:16:53.716Z,13.47
2017-10-24T01:19:20.390Z,15.70
2017-10-24T01:21:46.343Z,11.67
2017-10-24T01:24:12.308Z,12.13
2017-10-24T01:26:38.250Z,12.20
2017-10-24T01:29:12.049Z,12.30
2017-10-24T01:31:38.003Z,13.03
2017-10-24T01:34:03.937Z,11.20
2017-10-24T01:36:29.949Z,11.67
2017-10-24T01:38:55.931Z,12.93
2017-10-24T01:41:22.699Z,12.17
2017-10-24T01:43:48.632Z,14.60
2017-10-24T01:46:15.345Z,12.73
2017-10-24T01:48:41.295Z,11.23
2017-10-24T01:51:07.978Z,13.30
2017-10-24T01:53:33.954Z,12.83
2017-10-24T01:55:59.902Z,13.40
2017-10-24T01:58:25.883Z,11.60
2017-10-24T02:00:51.879Z,12.77
2017-10-24T02:03:17.842Z,14.10
2017-10-24T02:05:44.556Z,14.77
2017-10-24T02:08:10.536Z,14.87
2017-10-24T02:10:36.488Z,12.97
2017-10-24T02:13:02.504Z,14.23
2017-10-24T02:15:28.487Z,16.37
2017-10-24T02:17:54.430Z,13.07
2017-10-24T02:20:20.412Z,15.33
2017-10-24T02:22:46.416Z,13.93
2017-10-24T02:25:13.877Z,13.50
2017-10-24T02:27:39.822Z,13.63
2017-10-24T02:30:05.799Z,16.93
2017-10-24T02:32:31.747Z,12.73
2017-10-24T02:34:57.727Z,14.70
2017-10-24T02:37:24.424Z,14.73
2017-10-24T02:39:50.399Z,14.93
2017-10-24T02:42:16.387Z,14.80
2017-10-24T02:44:42.378Z,13.33
2017-10-24T02:47:08.325Z,14.53
2017-10-24T02:49:34.274Z,14.30
2017-10-24T02:52:01.033Z,12.43
2017-10-24T02:54:27.715Z,11.53
2017-10-24T02:56:53.677Z,13.20
2017-10-24T02:59:19.671Z,13.43
2017-10-24T03:01:45.676Z,13.97
2017-10-24T03:04:11.627Z,14.03
2017-10-24T03:06:38.373Z,13.20
2017-10-24T03:09:05.086Z,13.50
2017-10-24T03:11:31.075Z,14.40
2017-10-24T03:13:57.761Z,15.83
2017-10-24T03:16:23.710Z,13.10
2017-10-24T03:18:49.714Z,14.57
2017-10-24T03:21:15.682Z,15.20
2017-10-24T03:23:41.658Z,12.93
2017-10-24T03:26:08.355Z,12.90
2017-10-24T03:28:34.346Z,12.30
2017-10-24T03:31:01.031Z,15.13
2017-10-24T03:33:26.979Z,13.00
2017-10-24T03:35:52.986Z,13.60
2017-10-24T03:38:19.699Z,14.67
2017-10-24T03:40:45.711Z,13.97
2017-10-24T03:43:11.988Z,13.00
2017-10-24T03:45:39.430Z,14.17
2017-10-24T03:48:05.431Z,13.67
2017-10-24T03:50:31.442Z,14.00
2017-10-24T03:52:57.417Z,14.60
2017-10-24T03:55:23.402Z,15.67
2017-10-24T03:57:49.401Z,14.10
2017-10-24T04:00:15.455Z,15.33
2017-10-24T04:02:41.411Z,14.77
2017-10-24T04:05:07.442Z,14.10
2017-10-24T04:07:34.161Z,15.27
2017-10-24T04:10:00.163Z,15.10
2017-10-24T04:12:26.852Z,15.60
2017-10-24T04:14:52.834Z,15.30
2017-10-24T04:17:18.812Z,18.13
2017-10-24T04:19:44.839Z,16.33
2017-10-24T04:22:10.819Z,19.20
2017-10-24T04:24:36.830Z,21.87
2017-10-24T04:27:02.779Z,20.87
2017-10-24T04:29:28.789Z,22.10
2017-10-24T04:31:54.772Z,23.73
2017-10-24T04:34:20.821Z,19.70
2017-10-24T04:36:46.796Z,17.97
2017-10-24T04:39:12.924Z,20.60
2017-10-24T04:41:38.878Z,17.70
2017-10-24T04:44:04.830Z,21.63
2017-10-24T04:46:30.810Z,23.30
2017-10-24T04:48:56.794Z,21.80
2017-10-24T04:51:22.776Z,24.57
2017-10-24T04:53:49.466Z,22.77
2017-10-24T04:56:15.455Z,24.63
2017-10-24T04:58:41.463Z,25.80
2017-10-24T05:01:07.414Z,23.67
2017-10-24T05:03:33.369Z,25.77
2017-10-24T05:05:59.351Z,23.93
2017-10-24T05:08:25.336Z,22.27
2017-10-24T05:10:51.338Z,23.63
2017-10-24T05:13:17.317Z,25.03
2017-10-24T05:15:43.314Z,23.17
2017-10-24T05:18:09.302Z,27.10
2017-10-24T05:20:35.984Z,26.70
2017-10-24T05:23:01.963Z,24.90
2017-10-24T05:25:28.658Z,21.60
2017-10-24T05:27:54.691Z,24.20
2017-10-24T05:30:20.642Z,23.90
2017-10-24T05:32:46.602Z,24.30
2017-10-24T05:35:12.603Z,27.40
2017-10-24T05:37:38.554Z,25.50
2017-10-24T05:40:04.540Z,24.37
2017-10-24T05:42:31.426Z,23.33
2017-10-24T05:44:57.402Z,22.10
2017-10-24T05:47:23.386Z,24.30
2017-10-24T05:49:50.115Z,26.90
2017-10-24T05:52:16.087Z,26.43
2017-10-24T05:54:42.094Z,26.03
2017-10-24T05:57:08.064Z,25.97
2017-10-24T05:59:34.072Z,24.33
2017-10-24T06:02:00.805Z,24.43
2017-10-24T06:04:26.760Z,22.00
2017-10-24T06:06:53.498Z,23.43
2017-10-24T06:09:19.463Z,28.03
2017-10-24T06:11:46.190Z,21.40
2017-10-24T06:14:12.208Z,23.60
2017-10-24T06:16:38.166Z,25.17
2017-10-24T06:19:04.243Z,21.30
2017-10-24T06:21:30.236Z,22.60
2017-10-24T06:23:56.195Z,19.67
2017-10-24T06:26:22.950Z,23.47
2017-10-24T06:28:49.697Z,27.33
2017-10-24T06:31:16.403Z,22.10
2017-10-24T06:33:42.433Z,21.50
2017-10-24T06:36:08.415Z,22.77
2017-10-24T06:38:34.372Z,26.97
2017-10-24T06:41:01.066Z,22.07
2017-10-24T06:43:27.065Z,22.53
2017-10-24T06:45:53.023Z,22.60
2017-10-24T06:48:18.994Z,21.23
2017-10-24T06:50:44.981Z,23.57
2017-10-24T06:53:10.947Z,21.90
2017-10-24T06:55:36.909Z,27.80
2017-10-24T06:58:02.854Z,23.00
2017-10-24T07:00:29.579Z,23.27
2017-10-24T07:02:55.570Z,22.00
2017-10-24T07:05:21.572Z,28.37
2017-10-24T07:07:47.547Z,23.27
2017-10-24T07:10:13.510Z,25.57
2017-10-24T07:12:39.494Z,29.30
2017-10-24T07:15:06.189Z,21.63
2017-10-24T07:17:32.169Z,23.60
2017-10-24T07:19:58.123Z,22.97
2017-10-24T07:22:24.831Z,22.63
2017-10-24T07:24:50.842Z,22.40
2017-10-24T07:27:16.800Z,20.30
2017-10-24T07:29:42.788Z,23.33
2017-10-24T07:32:09.482Z,22.63
2017-10-24T07:34:35.469Z,20.77
2017-10-24T07:37:02.163Z,25.50
2017-10-24T07:39:28.178Z,24.70
2017-10-24T07:41:54.152Z,23.57
2017-10-24T07:44:20.130Z,25.20
2017-10-24T07:46:46.887Z,22.77
2017-10-24T07:49:13.577Z,21.67
2017-10-24T07:51:39.549Z,25.43
2017-10-24T07:54:05.527Z,22.63
2017-10-24T07:56:31.478Z,20.53
2017-10-24T07:58:57.492Z,24.50
2017-10-24T08:01:24.199Z,21.67
2017-10-24T08:03:50.187Z,22.50
2017-10-24T08:06:16.173Z,23.33
2017-10-24T08:08:42.141Z,23.17
2017-10-24T08:11:08.867Z,26.77
2017-10-24T08:13:34.829Z,23.97
2017-10-24T08:16:01.566Z,21.10
2017-10-24T08:18:28.294Z,23.57
2017-10-24T08:20:54.269Z,21.60
2017-10-24T08:23:21.027Z,20.50
2017-10-24T08:25:46.999Z,24.77
2017-10-24T08:28:12.987Z,21.17
2017-10-24T08:30:39.689Z,23.67
2017-10-24T08:33:05.670Z,24.33
2017-10-24T08:35:31.622Z,26.87
2017-10-24T08:37:58.368Z,19.80
2017-10-24T08:40:25.132Z,22.80
2017-10-24T08:42:51.887Z,25.03
2017-10-24T08:45:18.586Z,19.33
2017-10-24T08:47:44.573Z,20.97
2017-10-24T08:50:11.273Z,19.80
2017-10-24T08:52:37.245Z,18.97
2017-10-24T08:55:03.227Z,19.03
2017-10-24T08:57:29.170Z,21.87
2017-10-24T08:59:55.123Z,19.50
2017-10-24T09:02:21.144Z,24.17
2017-10-24T09:04:47.130Z,18.23
2017-10-24T09:07:22.049Z,18.20
2017-10-24T09:09:48.046Z,22.20
2017-10-24T09:12:14.058Z,25.27
2017-10-24T09:14:40.783Z,20.27
2017-10-24T09:20:16.146Z,20.60
2017-10-24T09:22:42.106Z,21.13
2017-10-24T09:25:08.105Z,21.87
2017-10-24T09:27:34.054Z,25.20
2017-10-24T09:29:59.998Z,19.80
2017-10-24T09:32:27.979Z,19.20
2017-10-24T09:34:53.978Z,27.03
2017-10-24T09:37:19.946Z,20.80
2017-10-24T09:39:45.905Z,19.90
2017-10-24T09:42:11.912Z,19.97
2017-10-24T09:44:37.912Z,22.93
2017-10-24T09:47:03.894Z,19.73
2017-10-24T09:49:29.841Z,21.43
2017-10-24T09:51:55.821Z,20.83
2017-10-24T09:54:21.781Z,27.37
2017-10-24T09:56:47.767Z,23.20
2017-10-24T10:02:11.927Z,21.03
2017-10-24T10:04:37.962Z,24.13
2017-10-24T10:07:09.853Z,22.63
2017-10-24T10:09:35.838Z,19.33
2017-10-24T10:12:01.826Z,20.37
2017-10-24T10:14:27.818Z,19.10
2017-10-24T10:16:54.562Z,18.47
2017-10-24T10:19:20.505Z,20.27
2017-10-24T10:21:48.166Z,16.40
2017-10-24T10:24:14.137Z,21.27
2017-10-24T10:26:40.831Z,20.03
2017-10-24T10:29:06.814Z,17.07
2017-10-24T10:31:33.508Z,20.10
2017-10-24T10:33:59.512Z,17.63
2017-10-24T10:36:25.483Z,16.13
2017-10-24T10:38:51.773Z,19.13
2017-10-24T10:41:18.507Z,15.60
2017-10-24T10:43:44.467Z,17.43
2017-10-24T10:46:11.158Z,17.33
2017-10-24T10:48:37.137Z,18.47
2017-10-24T10:51:03.083Z,18.70
2017-10-24T10:53:29.106Z,17.53
2017-10-24T10:55:55.137Z,17.23
2017-10-24T10:58:21.140Z,21.77
2017-10-24T11:00:47.126Z,17.67
2017-10-24T11:03:13.127Z,20.00
2017-10-24T11:05:39.077Z,16.33
2017-10-24T11:08:05.060Z,15.63
2017-10-24T11:10:32.019Z,15.60
2017-10-24T11:12:58.008Z,15.27
2017-10-24T11:15:24.099Z,16.97
2017-10-24T11:17:50.094Z,9.87
2017-10-24T11:20:34.690Z,11.37
2017-10-24T11:23:01.391Z,14.80
2017-10-24T11:25:27.420Z,13.93
2017-10-24T11:27:53.418Z,11.90
2017-10-24T11:30:20.138Z,13.77
2017-10-24T11:32:46.122Z,13.47
2017-10-24T11:35:12.072Z,12.57
2017-10-24T11:37:38.057Z,13.47
2017-10-24T11:40:05.497Z,13.57
2017-10-24T11:42:31.441Z,13.00
2017-10-24T11:44:57.437Z,12.37
2017-10-24T11:47:23.406Z,13.90
2017-10-24T11:49:49.397Z,11.70
2017-10-24T11:52:15.370Z,12.27
2017-10-24T11:54:41.357Z,13.53
2017-10-24T11:57:08.071Z,13.37
2017-10-24T11:59:34.006Z,15.90
2017-10-24T12:02:00.015Z,12.33
2017-10-24T12:04:25.989Z,13.20
2017-10-24T12:06:51.967Z,12.93
2017-10-24T12:09:17.950Z,13.20
2017-10-24T12:11:43.937Z,13.23
2017-10-24T12:14:09.891Z,15.33
2017-10-24T12:16:35.838Z,14.73
2017-10-24T12:19:01.870Z,13.13
2017-10-24T12:21:27.869Z,13.80
2017-10-24T12:23:54.645Z,12.70
2017-10-24T12:26:20.630Z,13.03
2017-10-24T12:28:46.618Z,15.60
2017-10-24T12:31:12.570Z,13.00
2017-10-24T12:33:38.641Z,13.00
2017-10-24T12:36:04.657Z,12.40
2017-10-24T12:38:30.628Z,13.03
2017-10-24T12:40:57.481Z,21.60
2017-10-24T12:43:24.223Z,18.50
2017-10-24T12:45:50.193Z,13.30
2017-10-24T12:48:19.861Z,14.47
2017-10-24T12:50:46.770Z,11.83
2017-10-24T12:53:13.517Z,11.80
2017-10-24T12:55:40.209Z,13.40
2017-10-24T12:58:06.162Z,10.73
2017-10-24T13:00:32.141Z,11.43
2017-10-24T13:02:58.846Z,13.57
2017-10-24T13:05:26.695Z,10.60
2017-10-24T13:07:52.712Z,9.93
2017-10-24T13:10:19.491Z,10.17
2017-10-24T13:12:45.477Z,8.87
2017-10-24T13:15:11.479Z,9.63
2017-10-24T13:17:37.429Z,8.90
2017-10-24T13:20:03.434Z,9.23
2017-10-24T13:22:29.418Z,9.77
2017-10-24T13:24:55.377Z,9.20
2017-10-24T13:27:22.143Z,8.80
2017-10-24T13:29:48.137Z,7.90
2017-10-24T13:32:14.118Z,7.67
2017-10-24T13:34:40.178Z,8.80
2017-10-24T13:37:06.129Z,7.90
2017-10-24T13:39:32.073Z,7.50
2017-10-24T13:41:58.050Z,6.73
2017-10-24T13:44:24.794Z,8.00
2017-10-24T13:46:51.554Z,9.07
2017-10-24T13:49:18.336Z,7.30
2017-10-24T13:51:44.316Z,6.63
2017-10-24T13:54:10.316Z,7.13
2017-10-24T13:56:36.270Z,7.80
2017-10-24T13:59:02.274Z,8.23
2017-10-24T14:01:28.238Z,7.30
2017-10-24T14:03:54.230Z,7.33
2017-10-24T14:06:27.126Z,7.70
2017-10-24T14:09:00.053Z,8.30
2017-10-24T14:11:26.001Z,7.93
2017-10-24T14:13:52.022Z,8.10
2017-10-24T14:16:17.991Z,7.67
2017-10-24T14:18:44.053Z,7.63
2017-10-24T14:21:10.010Z,8.47
2017-10-24T14:23:36.701Z,6.97
2017-10-24T14:26:02.686Z,9.33
2017-10-24T14:28:29.386Z,6.40
2017-10-24T14:30:55.378Z,6.67
2017-10-24T14:33:22.098Z,8.50
2017-10-24T14:35:48.113Z,7.43
2017-10-24T14:38:14.117Z,9.03
2017-10-24T14:40:40.061Z,7.77
2017-10-24T14:43:06.005Z,7.93
2017-10-24T14:45:31.984Z,6.50
2017-10-24T14:47:57.974Z,7.77
2017-10-24T14:50:23.939Z,7.73
2017-10-24T14:52:49.940Z,7.63
2017-10-24T14:55:15.966Z,6.40
2017-10-24T14:57:41.919Z,8.30
2017-10-24T15:00:07.925Z,6.93
2017-10-24T15:02:34.663Z,6.43
2017-10-24T15:05:00.633Z,6.47
2017-10-24T15:07:26.610Z,6.63
2017-10-24T15:09:52.593Z,7.23
2017-10-24T15:12:19.377Z,7.13
2017-10-24T15:14:45.643Z,7.53
2017-10-24T15:17:13.187Z,6.50
2017-10-24T15:19:39.230Z,6.47
2017-10-24T15:22:05.175Z,7.30
2017-10-24T15:24:31.131Z,7.20
2017-10-24T15:26:57.140Z,6.37
2017-10-24T15:29:23.139Z,7.93
2017-10-24T15:31:49.882Z,7.63
2017-10-24T15:34:16.569Z,7.50
2017-10-24T15:36:42.664Z,7.30
2017-10-24T15:39:08.694Z,6.50
2017-10-24T15:41:34.643Z,6.60
2017-10-24T15:44:00.630Z,6.70
2017-10-24T15:46:26.610Z,7.10
2017-10-24T15:48:52.570Z,7.30
2017-10-24T15:51:18.571Z,6.87
2017-10-24T15:53:44.560Z,7.60
2017-10-24T15:56:10.598Z,7.57
2017-10-24T15:58:36.577Z,6.30
2017-10-24T16:01:02.559Z,7.37
2017-10-24T16:03:28.578Z,8.40
2017-10-24T16:05:55.269Z,9.50
2017-10-24T16:08:21.302Z,8.93
2017-10-24T16:10:47.301Z,6.77
2017-10-24T16:13:14.036Z,6.07
2017-10-24T16:15:40.077Z,7.37
2017-10-24T16:18:06.075Z,6.23
2017-10-24T16:20:32.081Z,5.77
2017-10-24T16:22:58.051Z,7.00
2017-10-24T16:25:23.994Z,7.33
2017-10-24T16:27:50.111Z,6.93
2017-10-24T16:30:16.061Z,7.47
2017-10-24T16:32:42.041Z,9.60
2017-10-24T16:35:08.855Z,7.57
2017-10-24T16:37:34.899Z,7.23
2017-10-24T16:40:00.899Z,5.90
2017-10-24T16:42:26.858Z,6.27
2017-10-24T16:44:52.850Z,6.90
2017-10-24T16:47:19.546Z,6.30
2017-10-24T16:49:45.494Z,5.47
2017-10-24T16:52:11.496Z,7.50
2017-10-24T16:54:37.522Z,9.43
2017-10-24T16:57:03.511Z,6.97
2017-10-24T16:59:29.467Z,7.17
2017-10-24T17:01:56.199Z,6.03
2017-10-24T17:04:22.150Z,6.83
2017-10-24T17:06:48.145Z,6.33
2017-10-24T17:09:14.151Z,7.27
2017-10-24T17:11:40.904Z,7.73
2017-10-24T17:14:07.457Z,6.40
2017-10-24T17:16:33.438Z,7.27
2017-10-24T17:18:59.427Z,7.43
2017-10-24T17:21:25.410Z,9.47
2017-10-24T17:23:51.388Z,6.70
2017-10-24T17:26:18.105Z,7.20
2017-10-24T17:28:44.071Z,13.07
2017-10-24T17:31:10.813Z,11.77
2017-10-24T17:33:36.838Z,8.33
2017-10-24T17:36:02.790Z,9.30
2017-10-24T17:38:29.530Z,8.73
2017-10-24T17:40:55.473Z,8.40
2017-10-24T17:43:21.434Z,7.50
2017-10-24T17:45:48.158Z,6.97
2017-10-24T17:48:14.112Z,8.37
2017-10-24T17:50:40.857Z,7.93
2017-10-24T17:53:07.573Z,7.03
2017-10-24T17:55:33.553Z,7.80
2017-10-24T17:58:00.282Z,7.40
2017-10-24T18:00:26.282Z,7.47
2017-10-24T18:02:52.274Z,7.43
2017-10-24T18:05:18.217Z,6.63
2017-10-24T18:07:44.958Z,7.53
2017-10-24T18:10:10.914Z,7.20
2017-10-24T18:12:37.627Z,8.27
2017-10-24T18:15:03.641Z,7.20
2017-10-24T18:17:29.590Z,7.20
2017-10-24T18:19:55.574Z,7.73
2017-10-24T18:22:22.270Z,8.20
2017-10-24T18:24:48.252Z,8.00
2017-10-24T18:27:14.934Z,7.67
2017-10-24T18:29:40.940Z,7.27
2017-10-24T18:32:07.693Z,6.20
2017-10-24T18:34:34.425Z,7.33
2017-10-24T18:37:00.378Z,9.27
2017-10-24T18:39:27.102Z,7.40
2017-10-24T18:41:53.050Z,9.33
2017-10-24T18:44:19.053Z,8.60
2017-10-24T18:46:45.037Z,7.47
2017-10-24T18:49:11.015Z,6.83
2017-10-24T18:51:37.077Z,16.20
2017-10-24T18:54:03.037Z,10.47
2017-10-24T18:56:28.990Z,7.87
2017-10-24T18:58:55.010Z,7.43
2017-10-24T19:01:21.701Z,8.10
2017-10-24T19:03:47.697Z,6.73
2017-10-24T19:06:14.389Z,6.80
2017-10-24T19:08:40.442Z,6.70
2017-10-24T19:11:06.437Z,6.73
2017-10-24T19:13:32.406Z,6.73
2017-10-24T19:15:58.434Z,5.20
2017-10-24T19:18:24.422Z,6.03
2017-10-24T19:20:50.406Z,6.37
2017-10-24T19:23:16.354Z,6.20
2017-10-24T19:25:42.378Z,8.43
2017-10-24T19:28:08.374Z,6.90
2017-10-24T19:30:34.332Z,7.90
2017-10-24T19:33:01.061Z,7.67
2017-10-24T19:35:27.013Z,8.13
2017-10-24T19:37:53.745Z,8.00
2017-10-24T19:40:19.730Z,6.93
2017-10-24T19:42:45.669Z,17.30
2017-10-24T19:45:11.688Z,7.27
2017-10-24T19:47:38.381Z,5.87
2017-10-24T19:50:04.364Z,7.70
2017-10-24T19:52:31.109Z,8.03
2017-10-24T19:54:57.058Z,5.23
2017-10-24T19:57:23.759Z,7.00
2017-10-24T19:59:49.747Z,5.87
2017-10-24T20:02:16.481Z,5.93
2017-10-24T20:04:42.494Z,5.57
2017-10-24T20:07:08.502Z,6.53
2017-10-24T20:09:34.484Z,5.63
2017-10-24T20:12:00.437Z,5.10
2017-10-24T20:14:27.154Z,5.90
2017-10-24T20:16:53.106Z,5.50
2017-10-24T20:19:19.113Z,5.53
2017-10-24T20:21:45.075Z,5.60
2017-10-24T20:24:11.038Z,6.33
2017-10-24T20:26:37.816Z,6.40
2017-10-24T20:29:03.761Z,6.60
2017-10-24T20:31:29.765Z,5.90
2017-10-24T20:33:56.478Z,6.10
2017-10-24T20:36:22.430Z,8.60
2017-10-24T20:38:48.423Z,6.67
2017-10-24T20:41:14.378Z,6.67
2017-10-24T20:43:40.346Z,4.50
2017-10-24T20:46:06.388Z,4.40
2017-10-24T20:48:33.088Z,4.10
2017-10-24T20:50:59.078Z,4.20
2017-10-24T20:53:25.779Z,4.17
2017-10-24T20:55:51.740Z,3.47
2017-10-24T20:58:17.728Z,4.53
2017-10-24T21:00:43.721Z,4.20
2017-10-24T21:03:09.754Z,2.47
2017-10-24T21:05:35.742Z,2.60
2017-10-24T21:08:01.764Z,3.33
2017-10-24T21:10:28.474Z,2.60
2017-10-24T21:12:54.425Z,3.40
2017-10-24T21:15:20.425Z,2.30
2017-10-24T21:17:46.379Z,2.17
2017-10-24T21:20:12.329Z,2.13
2017-10-24T21:22:38.338Z,2.30
2017-10-24T21:25:04.332Z,2.70
2017-10-24T21:27:30.330Z,2.30
2017-10-24T21:29:56.307Z,2.17
2017-10-24T21:32:23.002Z,2.20
2017-10-24T21:34:49.006Z,2.30
2017-10-24T21:37:14.970Z,2.20
2017-10-24T21:39:41.006Z,2.63
2017-10-24T21:42:07.033Z,2.10
2017-10-24T21:44:33.054Z,2.03
2017-10-24T21:46:59.002Z,2.13
2017-10-24T21:49:24.993Z,2.03
2017-10-24T21:51:50.944Z,2.73
2017-10-24T21:54:17.645Z,2.00
2017-10-24T21:56:43.661Z,2.50
2017-10-24T21:59:09.674Z,2.33
2017-10-24T22:01:36.430Z,2.63
2017-10-24T22:04:02.402Z,2.73
2017-10-24T22:06:28.354Z,1.93
2017-10-24T22:09:01.302Z,2.33
2017-10-24T22:11:27.315Z,3.00
2017-10-24T22:13:53.257Z,2.93
2017-10-24T22:16:20.002Z,3.30
2017-10-24T22:18:45.968Z,2.77
2017-10-24T22:21:11.999Z,2.63
2017-10-24T22:23:38.030Z,2.87
2017-10-24T22:26:04.006Z,2.30
2017-10-24T22:28:29.964Z,2.80
2017-10-24T22:30:55.974Z,2.70
2017-10-24T22:33:21.921Z,3.17
2017-10-24T22:35:47.903Z,2.90
2017-10-24T22:38:14.599Z,2.10
2017-10-24T22:40:40.613Z,2.50
2017-10-24T22:43:06.643Z,2.80
2017-10-24T22:45:32.609Z,2.40
2017-10-24T22:47:58.614Z,2.47
2017-10-24T22:50:24.598Z,2.00
2017-10-24T22:52:50.545Z,2.00
2017-10-24T22:55:16.530Z,2.17
2017-10-24T22:57:42.504Z,2.27
2017-10-24T23:00:08.530Z,2.23
2017-10-24T23:02:34.568Z,2.43
2017-10-24T23:05:01.274Z,2.20
2017-10-24T23:07:27.979Z,1.80
2017-10-24T23:09:53.928Z,2.50
2017-10-24T23:12:19.910Z,1.87
2017-10-24T23:14:45.869Z,2.00
2017-10-24T23:17:11.871Z,2.40
2017-10-24T23:19:38.627Z,2.40
2017-10-24T23:22:05.390Z,2.57
2017-10-24T23:24:31.387Z,2.43
2017-10-24T23:26:57.371Z,1.73
2017-10-24T23:29:23.398Z,2.20
2017-10-24T23:31:49.351Z,3.03
2017-10-24T23:34:15.352Z,1.50
2017-10-24T23:36:42.065Z,3.80
2017-10-24T23:39:08.090Z,2.37
2017-10-24T23:41:34.043Z,2.57
2017-10-24T23:44:00.032Z,3.53
2017-10-24T23:46:25.981Z,2.53
2017-10-24T23:48:51.918Z,3.30
2017-10-24T23:51:17.911Z,3.50
2017-10-24T23:53:43.927Z,3.43
2017-10-24T23:56:09.917Z,3.90
2017-10-24T23:58:35.954Z,5.20
